createdAt,value
2022-08-16T00:00:56.658Z,99859.97
2022-08-16T00:03:23.279Z,99847.78
2022-08-16T00:05:57.559Z,99838.19
2022-08-16T00:08:35.929Z,99858.91
2022-08-16T00:11:03.800Z,99860.81
2022-08-16T00:13:30.290Z,99878.72
2022-08-16T00:15:56.919Z,99888.69
2022-08-16T00:18:29.541Z,99897.06
2022-08-16T00:20:57.289Z,99901.19
2022-08-16T00:23:24.522Z,99898.50
2022-08-16T00:26:33.830Z,99890.59
2022-08-16T00:28:54.869Z,99887.88
2022-08-16T00:31:24.256Z,99876.22
2022-08-16T00:33:51.111Z,99872.25
2022-08-16T00:36:17.854Z,99854.09
2022-08-16T00:38:44.359Z,99852.22
2022-08-16T00:41:11.319Z,99844.09
2022-08-16T00:43:42.833Z,99837.88
2022-08-16T00:46:33.897Z,99841.38
2022-08-16T00:49:07.150Z,99833.28
2022-08-16T00:51:44.750Z,99827.84
2022-08-16T00:54:12.189Z,99826.00
2022-08-16T00:56:58.098Z,99809.03
2022-08-16T00:59:28.955Z,99824.09
2022-08-16T01:01:56.279Z,99817.88
2022-08-16T01:04:29.845Z,99817.88
2022-08-16T01:07:01.729Z,99821.41
2022-08-16T01:09:33.442Z,99826.81
2022-08-16T01:12:01.332Z,99821.41
2022-08-16T01:14:36.364Z,99820.59
2022-08-16T01:17:04.359Z,99829.53
2022-08-16T01:19:40.867Z,99824.94
2022-08-16T01:22:47.892Z,99826.81
2022-08-16T01:25:13.779Z,99824.09
2022-08-16T01:27:45.692Z,99817.88
2022-08-16T01:30:21.784Z,99806.03
2022-08-16T01:33:01.862Z,99818.69
2022-08-16T01:35:57.642Z,99817.03
2022-08-16T01:38:35.438Z,99822.44
2022-08-16T01:41:12.519Z,99815.38
2022-08-16T01:43:54.224Z,99817.03
2022-08-16T01:46:40.277Z,99803.78
2022-08-16T01:49:18.620Z,99808.53
2022-08-16T01:51:48.278Z,99809.97
2022-08-16T01:54:16.098Z,99791.28
2022-08-16T01:56:42.932Z,99803.72
2022-08-16T01:59:15.898Z,99805.38
2022-08-16T02:01:49.487Z,99802.44
2022-08-16T02:04:40.107Z,99808.91
2022-08-16T02:07:11.380Z,99800.78
2022-08-16T02:09:39.050Z,99800.78
2022-08-16T02:12:50.529Z,99805.16
2022-08-16T02:14:55.418Z,99807.88
2022-08-16T02:17:22.319Z,99801.63
2022-08-16T02:19:59.165Z,99799.75
2022-08-16T02:22:34.268Z,99790.41
2022-08-16T02:25:04.282Z,99796.22
2022-08-16T02:27:31.008Z,99808.91
2022-08-16T02:30:05.436Z,99807.88
2022-08-16T02:32:51.028Z,99808.69
2022-08-16T02:35:23.199Z,99807.88
2022-08-16T02:37:52.964Z,99808.69
2022-08-16T02:40:21.992Z,99808.69
2022-08-16T02:42:50.812Z,99718.25
2022-08-16T02:45:20.360Z,99814.91
2022-08-16T02:48:00.536Z,99821.19
2022-08-16T02:50:55.374Z,99814.91
2022-08-16T02:53:24.703Z,99810.34
2022-08-16T02:55:53.782Z,99816.00
2022-08-16T02:58:24.810Z,99810.34
2022-08-16T03:00:52.501Z,99812.22
2022-08-16T03:03:19.136Z,99806.66
2022-08-16T03:05:52.230Z,99826.59
2022-08-16T03:08:50.988Z,99825.53
2022-08-16T03:11:16.638Z,99820.34
2022-08-16T03:13:51.423Z,99825.75
2022-08-16T03:16:36.514Z,99826.59
2022-08-16T03:19:06.393Z,99814.78
2022-08-16T03:21:38.224Z,99825.75
2022-08-16T03:24:27.604Z,99821.19
2022-08-16T03:26:58.757Z,99817.63
2022-08-16T03:29:32.022Z,99819.50
2022-08-16T03:32:01.218Z,99814.91
2022-08-16T03:34:29.422Z,99814.09
2022-08-16T03:36:56.297Z,99816.59
2022-08-16T03:39:23.182Z,99816.81
2022-08-16T03:41:59.885Z,99790.88
2022-08-16T03:44:44.708Z,99805.84
2022-08-16T03:47:18.616Z,99810.34
2022-08-16T03:49:51.191Z,99804.94
2022-08-16T03:52:20.314Z,99812.22
2022-08-16T03:54:57.734Z,99813.06
2022-08-16T03:57:32.192Z,99815.78
2022-08-16T04:00:35.776Z,99800.41
2022-08-16T04:03:07.090Z,99807.25
2022-08-16T04:05:36.843Z,99758.81
2022-08-16T04:08:22.377Z,99801.38
2022-08-16T04:10:52.331Z,99799.53
2022-08-16T04:13:20.778Z,99794.13
2022-08-16T04:16:06.601Z,99804.94
2022-08-16T04:18:33.247Z,99798.31
2022-08-16T04:21:01.003Z,99806.81
2022-08-16T04:23:27.448Z,99812.22
2022-08-16T04:25:53.955Z,99807.03
2022-08-16T04:28:52.230Z,99814.91
2022-08-16T04:31:07.356Z,99816.81
2022-08-16T04:33:37.124Z,99821.19
2022-08-16T04:36:04.665Z,99819.50
2022-08-16T04:38:31.289Z,99821.19
2022-08-16T04:41:00.164Z,99822.00
2022-08-16T04:43:26.964Z,99817.41
2022-08-16T04:45:59.971Z,99811.19
2022-08-16T04:48:32.613Z,99810.34
2022-08-16T04:51:01.383Z,99815.53
2022-08-16T04:53:34.663Z,99813.88
2022-08-16T04:56:01.117Z,99810.34
2022-08-16T04:58:44.058Z,99789.19
2022-08-16T05:01:12.876Z,99810.34
2022-08-16T05:04:00.468Z,99812.00
2022-08-16T05:06:45.520Z,99801.44
2022-08-16T05:09:12.658Z,99816.59
2022-08-16T05:11:39.321Z,99812.00
2022-08-16T05:14:07.237Z,99816.38
2022-08-16T05:16:33.962Z,99798.31
2022-08-16T05:19:02.215Z,99812.81
2022-08-16T05:21:35.920Z,99802.84
2022-08-16T05:24:07.645Z,99803.66
2022-08-16T05:26:40.813Z,99802.59
2022-08-16T05:29:11.021Z,99799.06
2022-08-16T05:31:48.130Z,99780.78
2022-08-16T05:34:19.407Z,99791.53
2022-08-16T05:36:49.242Z,99792.38
2022-08-16T05:39:18.112Z,99793.44
2022-08-16T05:41:47.218Z,99788.22
2022-08-16T05:44:22.473Z,99788.44
2022-08-16T05:46:56.246Z,99781.41
2022-08-16T05:49:23.440Z,99788.69
2022-08-16T05:51:50.816Z,99771.13
2022-08-16T05:54:24.794Z,99788.16
2022-08-16T05:56:52.983Z,99785.00
2022-08-16T05:59:22.153Z,99797.63
2022-08-16T06:01:52.207Z,99800.34
2022-08-16T06:04:35.551Z,99798.47
2022-08-16T06:07:07.286Z,99796.56
2022-08-16T06:09:43.707Z,99788.22
2022-08-16T06:12:26.930Z,99788.22
2022-08-16T06:15:10.115Z,99786.34
2022-08-16T06:17:42.486Z,99759.41
2022-08-16T06:20:23.147Z,99789.88
2022-08-16T06:22:58.608Z,99787.78
2022-08-16T06:25:35.920Z,99785.75
2022-08-16T06:28:08.554Z,99790.72
2022-08-16T06:30:35.628Z,99787.16
2022-08-16T06:33:12.310Z,99789.88
2022-08-16T06:35:41.544Z,99802.59
2022-08-16T06:38:33.649Z,99799.06
2022-08-16T06:40:55.464Z,99793.25
2022-08-16T06:43:21.965Z,99807.41
2022-08-16T06:45:54.324Z,99775.13
2022-08-16T06:48:32.662Z,99801.38
2022-08-16T06:51:01.363Z,99797.03
2022-08-16T06:53:29.707Z,99809.75
2022-08-16T06:55:58.685Z,99818.91
2022-08-16T06:58:31.314Z,99800.31
2022-08-16T07:00:59.956Z,99823.72
2022-08-16T07:03:32.525Z,99826.44
2022-08-16T07:05:59.614Z,99823.72
2022-08-16T07:08:27.617Z,99818.53
2022-08-16T07:10:55.223Z,99816.66
2022-08-16T07:13:57.697Z,99815.84
2022-08-16T07:16:15.470Z,99823.09
2022-08-16T07:18:58.887Z,99825.00
2022-08-16T07:21:28.194Z,99830.41
2022-08-16T07:24:26.838Z,99833.13
2022-08-16T07:26:59.026Z,99828.78
2022-08-16T07:29:28.195Z,99827.91
2022-08-16T07:32:00.693Z,99832.50
2022-08-16T07:34:35.409Z,99838.75
2022-08-16T07:37:08.035Z,99834.19
2022-08-16T07:39:43.081Z,99827.91
2022-08-16T07:42:10.938Z,99830.88
2022-08-16T07:44:52.754Z,99827.91
2022-08-16T07:47:19.515Z,99830.88
2022-08-16T07:49:57.716Z,99824.38
2022-08-16T07:52:25.046Z,99809.03
2022-08-16T07:54:57.050Z,99811.66
2022-08-16T07:57:24.624Z,99823.34
2022-08-16T07:59:51.872Z,99821.69
2022-08-16T08:02:20.631Z,99813.78
2022-08-16T08:04:48.046Z,99797.00
2022-08-16T08:07:16.169Z,99767.19
2022-08-16T08:09:43.922Z,99813.34
2022-08-16T08:12:32.628Z,99817.69
2022-08-16T08:14:58.253Z,99815.00
2022-08-16T08:17:25.179Z,99822.06
2022-08-16T08:20:26.096Z,99820.19
2022-08-16T08:23:00.619Z,99812.06
2022-08-16T08:25:52.006Z,99815.59
2022-08-16T08:28:17.173Z,99821.84
2022-08-16T08:30:51.848Z,99817.47
2022-08-16T08:33:28.418Z,99822.91
2022-08-16T08:35:57.772Z,99805.72
2022-08-16T08:38:44.997Z,99818.38
2022-08-16T08:41:15.302Z,99831.03
2022-08-16T08:43:47.243Z,99830.81
2022-08-16T08:46:18.329Z,99813.84
2022-08-16T08:48:59.090Z,99833.50
2022-08-16T08:51:27.610Z,99837.88
2022-08-16T08:53:58.782Z,99841.38
2022-08-16T08:56:25.850Z,99833.88
2022-08-16T08:58:55.003Z,99844.72
2022-08-16T09:01:31.490Z,99844.50
2022-08-16T09:04:04.461Z,99843.66
2022-08-16T09:06:32.516Z,99841.19
2022-08-16T09:09:00.467Z,99842.00
2022-08-16T09:11:38.839Z,99848.88
2022-08-16T09:14:08.238Z,99846.97
2022-08-16T09:17:01.694Z,99851.34
2022-08-16T09:19:34.036Z,99845.72
2022-08-16T09:22:01.072Z,99853.97
2022-08-16T09:24:51.400Z,99853.16
2022-08-16T09:27:14.636Z,99856.53
2022-08-16T09:29:45.758Z,99852.22
2022-08-16T09:32:28.691Z,99846.94
2022-08-16T09:34:58.726Z,99857.16
2022-08-16T09:37:29.198Z,99853.06
2022-08-16T09:39:59.476Z,99862.69
2022-08-16T09:42:28.001Z,99863.94
2022-08-16T09:45:12.315Z,99860.88
2022-08-16T09:47:56.766Z,99843.66
2022-08-16T09:50:36.914Z,99852.78
2022-08-16T09:53:14.792Z,99849.94
2022-08-16T09:55:45.894Z,99856.81
2022-08-16T09:58:41.835Z,99843.50
2022-08-16T10:01:03.231Z,99832.16
2022-08-16T10:03:30.565Z,99842.53
2022-08-16T10:05:57.522Z,99830.34
2022-08-16T10:08:26.919Z,99831.78
2022-08-16T10:11:12.705Z,99830.13
2022-08-16T10:13:41.458Z,99852.13
2022-08-16T10:19:00.611Z,99848.03
2022-08-16T10:21:23.569Z,99851.34
2022-08-16T10:23:53.574Z,99848.19
2022-08-16T10:27:16.669Z,99847.16
2022-08-16T10:29:10.666Z,99846.09
2022-08-16T10:31:45.688Z,99859.78
2022-08-16T10:34:30.846Z,99863.94
2022-08-16T10:36:58.798Z,99856.66
2022-08-16T10:39:25.433Z,99862.06
2022-08-16T10:41:51.973Z,99860.41
2022-08-16T10:44:18.439Z,99857.06
2022-08-16T10:46:45.102Z,99841.38
2022-08-16T10:49:12.654Z,99865.63
2022-08-16T10:52:00.873Z,99864.00
2022-08-16T10:54:31.017Z,99863.38
2022-08-16T10:56:59.646Z,99864.41
2022-08-16T10:59:38.427Z,99879.81
2022-08-16T11:02:59.225Z,99873.78
2022-08-16T11:05:09.409Z,99866.75
2022-08-16T11:07:51.397Z,99860.09
2022-08-16T11:16:26.910Z,99872.41
2022-08-16T11:19:05.611Z,99882.56
2022-08-16T11:21:36.580Z,99888.59
2022-08-16T11:24:04.859Z,99886.50
2022-08-16T11:29:39.253Z,99880.63
2022-08-16T11:32:07.630Z,99906.03
2022-08-16T11:35:03.982Z,99896.09
2022-08-16T11:37:27.564Z,99888.81
2022-08-16T11:40:01.686Z,99880.13
2022-08-16T11:42:32.180Z,99891.94
2022-08-16T11:45:00.986Z,99898.78
2022-08-16T11:47:28.664Z,99883.19
2022-08-16T11:49:55.192Z,99887.72
2022-08-16T11:52:23.779Z,99886.25
2022-08-16T11:54:57.076Z,99898.25
2022-08-16T11:57:26.801Z,99890.34
2022-08-16T11:59:54.899Z,99884.50
2022-08-16T12:02:32.054Z,99870.75
2022-08-16T12:04:59.529Z,99870.69
2022-08-16T12:07:27.851Z,99875.66
2022-08-16T12:09:55.141Z,99872.31
2022-08-16T12:12:23.613Z,99867.31
2022-08-16T12:14:54.629Z,99863.56
2022-08-16T12:17:27.943Z,99866.03
2022-08-16T12:19:58.531Z,99822.94
2022-08-16T12:22:25.643Z,99883.50
2022-08-16T12:24:52.777Z,99859.34
2022-08-16T12:27:23.307Z,99860.38
2022-08-16T12:29:51.435Z,99870.97
2022-08-16T12:32:38.257Z,99869.91
2022-08-16T12:35:07.529Z,99868.66
2022-08-16T12:37:34.932Z,99879.25
2022-08-16T12:40:01.739Z,99874.66
2022-08-16T12:42:35.267Z,99877.16
2022-08-16T12:45:08.851Z,99817.69
2022-08-16T12:48:09.960Z,99880.47
2022-08-16T12:50:40.885Z,99878.38
2022-08-16T12:53:07.838Z,99880.25
2022-08-16T12:55:41.932Z,99853.53
2022-08-16T12:58:14.012Z,99888.16
2022-08-16T13:00:58.402Z,99881.69
2022-08-16T13:03:25.777Z,99885.91
2022-08-16T13:05:55.820Z,99899.59
2022-08-16T13:08:23.292Z,99910.41
2022-08-16T13:10:58.083Z,99901.00
2022-08-16T13:13:25.838Z,99903.72
2022-08-16T13:15:59.600Z,99897.69
2022-08-16T13:18:33.522Z,99899.16
2022-08-16T13:21:03.828Z,99895.84
2022-08-16T13:23:30.614Z,99902.47
2022-08-16T13:25:58.748Z,99905.19
2022-08-16T13:28:26.809Z,99895.19
2022-08-16T13:30:56.695Z,99901.41
2022-08-16T13:33:30.463Z,99904.72
2022-08-16T13:35:59.488Z,99904.53
2022-08-16T13:38:32.684Z,99904.28
2022-08-16T13:41:09.751Z,99904.88
2022-08-16T13:43:38.288Z,99909.28
2022-08-16T13:46:06.578Z,99916.13
2022-08-16T13:48:37.159Z,99917.53
2022-08-16T13:51:16.881Z,99926.28
2022-08-16T13:53:54.686Z,99925.03
2022-08-16T13:56:34.205Z,99921.50
2022-08-16T13:59:19.495Z,99931.66
2022-08-16T14:01:56.003Z,99927.91
2022-08-16T14:04:26.604Z,99926.72
2022-08-16T14:06:53.914Z,99939.13
2022-08-16T14:09:21.348Z,99933.09
2022-08-16T14:11:47.879Z,99934.31
2022-08-16T14:14:19.792Z,99944.13
2022-08-16T14:16:54.738Z,99910.25
2022-08-16T14:19:22.427Z,99946.38
2022-08-16T14:22:02.283Z,99939.66
2022-08-16T14:24:36.690Z,99923.31
2022-08-16T14:27:04.766Z,99921.84
2022-08-16T14:29:32.234Z,99942.97
2022-08-16T14:32:05.091Z,99938.63
2022-08-16T14:34:31.538Z,99935.94
2022-08-16T14:36:58.249Z,99943.81
2022-08-16T14:39:26.604Z,99946.31
2022-08-16T14:41:53.414Z,99940.94
2022-08-16T14:44:23.046Z,99963.78
2022-08-16T14:46:49.483Z,99938.44
2022-08-16T14:49:15.931Z,99968.53
2022-08-16T14:51:46.157Z,99956.31
2022-08-16T14:54:13.027Z,99972.28
2022-08-16T14:56:43.289Z,99958.88
2022-08-16T14:59:22.351Z,99973.84
2022-08-16T15:01:58.841Z,99989.66
2022-08-16T15:04:32.287Z,99990.94
2022-08-16T15:07:06.484Z,99997.63
2022-08-16T15:09:44.608Z,99998.84
2022-08-16T15:12:31.231Z,100006.97
2022-08-16T15:15:04.162Z,100003.88
2022-08-16T15:17:33.807Z,99995.94
2022-08-16T15:20:08.587Z,99982.97
2022-08-16T15:22:40.464Z,100008.94
2022-08-16T15:25:31.745Z,100007.28
2022-08-16T15:28:02.382Z,100002.28
2022-08-16T15:30:48.250Z,100008.16
2022-08-16T15:33:21.130Z,100008.34
2022-08-16T15:35:50.669Z,100007.97
2022-08-16T15:38:58.099Z,99997.84
2022-08-16T15:41:04.784Z,100006.13
2022-08-16T15:43:39.522Z,99999.91
2022-08-16T15:46:35.613Z,100008.22
2022-08-16T15:49:09.552Z,100004.91
2022-08-16T15:51:36.905Z,100002.22
2022-08-16T15:54:21.229Z,100007.63
2022-08-16T15:56:54.982Z,99914.06
2022-08-16T15:59:23.875Z,99997.00
2022-08-16T16:01:55.775Z,99976.72
2022-08-16T16:04:23.438Z,99997.44
2022-08-16T16:06:55.149Z,100003.06
2022-08-16T16:09:34.772Z,100008.94
2022-08-16T16:12:16.282Z,100011.84
2022-08-16T16:14:51.635Z,100016.25
2022-08-16T16:17:18.086Z,100014.56
2022-08-16T16:19:44.522Z,100010.22
2022-08-16T16:22:16.274Z,100022.47
2022-08-16T16:24:47.034Z,100024.72
2022-08-16T16:27:14.229Z,100015.78
2022-08-16T16:29:42.665Z,100018.28
2022-08-16T16:32:13.399Z,100021.22
2022-08-16T16:34:43.079Z,100029.97
2022-08-16T16:37:10.381Z,100019.81
2022-08-16T16:39:37.703Z,100028.75
2022-08-16T16:42:05.318Z,100029.78
2022-08-16T16:44:33.896Z,100013.81
2022-08-16T16:47:03.856Z,100033.34
2022-08-16T16:49:32.875Z,100038.53
2022-08-16T16:52:07.150Z,100023.78
2022-08-16T16:54:35.518Z,100038.16
2022-08-16T16:57:02.267Z,100041.22
2022-08-16T16:59:29.141Z,100032.13
2022-08-16T17:02:39.392Z,100033.34
2022-08-16T17:04:45.864Z,100037.91
2022-08-16T17:07:13.811Z,100038.75
2022-08-16T17:09:41.383Z,100048.31
2022-08-16T17:12:10.245Z,100048.72
2022-08-16T17:14:50.240Z,100038.31
2022-08-16T17:17:16.739Z,100053.03
2022-08-16T17:19:43.276Z,100065.31
2022-08-16T17:22:19.841Z,100055.28
2022-08-16T17:24:50.859Z,100048.69
2022-08-16T17:27:33.668Z,100051.59
2022-08-16T17:30:15.054Z,100079.00
2022-08-16T17:32:50.404Z,100084.00
2022-08-16T17:35:34.139Z,100085.66
2022-08-16T17:38:04.865Z,100094.38
2022-08-16T17:40:46.997Z,100095.00
2022-08-16T17:43:20.054Z,100087.13
2022-08-16T17:45:47.257Z,100096.47
2022-08-16T17:48:13.819Z,100104.16
2022-08-16T17:50:41.687Z,100108.50
2022-08-16T17:53:11.030Z,100074.00
2022-08-16T17:55:41.029Z,100103.94
2022-08-16T17:58:20.979Z,100108.28
2022-08-16T18:00:52.242Z,100079.00
2022-08-16T18:04:02.463Z,100108.09
2022-08-16T18:06:12.722Z,100114.94
2022-08-16T18:08:41.413Z,100110.59
2022-08-16T18:11:10.037Z,100106.81
2022-08-16T18:13:42.805Z,100103.03
2022-08-16T18:16:09.658Z,100115.56
2022-08-16T18:18:36.114Z,100112.84
2022-08-16T18:21:21.021Z,100112.03
2022-08-16T18:23:47.488Z,100117.81
2022-08-16T18:26:13.939Z,100123.22
2022-08-16T18:28:41.196Z,100113.28
2022-08-16T18:31:08.095Z,100135.75
2022-08-16T18:33:43.231Z,100137.38
2022-08-16T18:36:20.535Z,100094.63
2022-08-16T18:38:49.596Z,100144.47
2022-08-16T18:41:16.409Z,100145.53
2022-08-16T18:44:23.058Z,100150.13
2022-08-16T18:46:29.376Z,100142.44
2022-08-16T18:48:55.816Z,100152.00
2022-08-16T18:51:25.174Z,100161.16
2022-08-16T18:53:52.270Z,100160.34
2022-08-16T18:56:21.676Z,100164.09
2022-08-16T18:58:48.254Z,100140.22
2022-08-16T19:01:14.838Z,100166.41
2022-08-16T19:03:41.433Z,100174.97
2022-08-16T19:06:13.604Z,100182.25
2022-08-16T19:08:42.199Z,100191.44
2022-08-16T19:11:13.886Z,100187.06
2022-08-16T19:13:44.051Z,100181.03
2022-08-16T19:16:12.083Z,100187.72
2022-08-16T19:18:38.648Z,100185.03
2022-08-16T19:21:06.364Z,100196.50
2022-08-16T19:23:35.831Z,100210.84
2022-08-16T19:26:06.866Z,100217.34
2022-08-16T19:28:58.450Z,100217.53
2022-08-16T19:31:35.593Z,100224.84
2022-08-16T19:34:04.142Z,100131.06
2022-08-16T19:36:35.232Z,100223.56
2022-08-16T19:39:06.103Z,100219.84
2022-08-16T19:41:38.376Z,100226.47
2022-08-16T19:44:06.416Z,100228.38
2022-08-16T19:46:33.652Z,100227.53
2022-08-16T19:49:00.364Z,100227.75
2022-08-16T19:51:27.363Z,100225.88
2022-08-16T19:53:53.828Z,100235.25
2022-08-16T19:56:22.933Z,100228.00
2022-08-16T19:59:16.294Z,100239.84
2022-08-16T20:01:42.303Z,100226.16
2022-08-16T20:04:12.074Z,100229.88
2022-08-16T20:06:39.389Z,100234.88
2022-08-16T20:09:06.500Z,100239.22
2022-08-16T20:11:34.719Z,100239.44
2022-08-16T20:14:01.937Z,100240.28
2022-08-16T20:16:28.395Z,100250.88
2022-08-16T20:18:54.841Z,100247.34
2022-08-16T20:21:21.323Z,100255.28
2022-08-16T20:23:47.741Z,100259.84
2022-08-16T20:26:14.187Z,100253.59
2022-08-16T20:28:53.126Z,100251.75
2022-08-16T20:31:22.204Z,100257.16
2022-08-16T20:33:48.919Z,100259.84
2022-08-16T20:36:16.317Z,100262.56
2022-08-16T20:38:45.890Z,100257.97
2022-08-16T20:41:12.856Z,100271.50
2022-08-16T20:43:39.379Z,100272.53
2022-08-16T20:46:06.084Z,100267.56
2022-08-16T20:48:32.595Z,100278.81
2022-08-16T20:50:59.026Z,100277.34
2022-08-16T20:53:25.532Z,100294.22
2022-08-16T20:55:52.082Z,100273.63
2022-08-16T20:58:18.629Z,100296.91
2022-08-16T21:00:45.485Z,100291.50
2022-08-16T21:03:13.025Z,100294.22
2022-08-16T21:05:39.776Z,100264.06
2022-08-16T21:08:50.202Z,100291.72
2022-08-16T21:10:52.882Z,100293.59
2022-08-16T21:13:20.702Z,100293.59
2022-08-16T21:15:47.195Z,100294.66
2022-08-16T21:18:13.627Z,100300.06
2022-08-16T21:20:40.186Z,100299.25
2022-08-16T21:23:08.923Z,100300.06
2022-08-16T21:25:37.322Z,100302.78
2022-08-16T21:28:39.995Z,100296.53
2022-08-16T21:30:56.793Z,100295.72
2022-08-16T21:33:23.619Z,100278.84
2022-08-16T21:35:52.327Z,100308.63
2022-08-16T21:38:28.612Z,100297.19
2022-08-16T21:40:56.221Z,100306.13
2022-08-16T21:43:27.572Z,100288.19
2022-08-16T21:45:55.624Z,100308.00
2022-08-16T21:48:34.165Z,100316.13
2022-08-16T21:51:03.785Z,100309.03
2022-08-16T21:53:30.386Z,100319.03
2022-08-16T21:55:58.803Z,100321.75
2022-08-16T21:58:25.835Z,100323.63
2022-08-16T22:00:52.638Z,100318.22
2022-08-16T22:03:19.198Z,100319.22
2022-08-16T22:06:12.119Z,100313.81
2022-08-16T22:08:34.252Z,100319.22
2022-08-16T22:11:06.449Z,100314.25
2022-08-16T22:13:35.367Z,100316.75
2022-08-16T22:16:06.810Z,100320.28
2022-08-16T22:18:33.271Z,100316.97
2022-08-16T22:20:59.719Z,100316.13
2022-08-16T22:23:26.536Z,100297.41
2022-08-16T22:25:56.419Z,100290.31
2022-08-16T22:28:23.988Z,100320.69
2022-08-16T22:30:50.982Z,100315.28
2022-08-16T22:33:21.160Z,100320.69
2022-08-16T22:35:50.645Z,100319.03
2022-08-16T22:38:53.470Z,100320.31
2022-08-16T22:41:05.387Z,100324.66
2022-08-16T22:43:32.673Z,100328.41
2022-08-16T22:45:59.256Z,100317.38
2022-08-16T22:48:25.720Z,100344.66
2022-08-16T22:50:52.899Z,100336.53
2022-08-16T22:53:20.026Z,100341.97
2022-08-16T22:55:46.961Z,100346.53
2022-08-16T22:58:13.933Z,100350.28
2022-08-16T23:00:40.850Z,100341.53
2022-08-16T23:03:18.953Z,100350.28
2022-08-16T23:05:55.451Z,100353.00
2022-08-16T23:08:32.387Z,100352.38
2022-08-16T23:11:06.816Z,100351.53
2022-08-16T23:13:33.972Z,100349.84
2022-08-16T23:16:11.334Z,100348.19
2022-08-16T23:18:39.020Z,100352.78
2022-08-16T23:21:08.348Z,100344.88
2022-08-16T23:23:35.187Z,100347.56
2022-08-16T23:26:02.494Z,100326.13
2022-08-16T23:28:49.729Z,100356.72
2022-08-16T23:31:16.460Z,100347.78
2022-08-16T23:33:42.903Z,100342.38
2022-08-16T23:36:09.841Z,100339.66
2022-08-16T23:38:39.367Z,100341.53
2022-08-16T23:41:11.579Z,100342.59
2022-08-16T23:43:42.929Z,100350.72
2022-08-16T23:46:13.863Z,100353.63
2022-08-16T23:49:59.138Z,100356.34
2022-08-16T23:51:28.888Z,100356.34
2022-08-16T23:53:55.673Z,100358.22
2022-08-16T23:56:22.547Z,100347.16
2022-08-16T23:58:54.327Z,100355.69
